Time;durP1;ratioP1;P1;durP2;ratioP2;P2;SDS_P1;SDS_P2;PMS_P1;PMS_P2;Temp;Humidity;BMP_temperature;BMP_pressure;BME280_temperature;BME280_humidity;BME280_pressure;Samples;Min_cycle;Max_cycle;Signal;HPM_P1;HPM_P2
2022/09/17 00:02:21;;;;;;;8.55;2.25;;;;;;;;;;5015911;28;20045;-59
2022/09/17 00:04:47;;;;;;;10.32;3.75;;;;;;;;;;5015067;28;20074;-59
2022/09/17 00:07:13;;;;;;;8.50;2.60;;;;;;;;;;5011658;28;20497;-59
2022/09/17 00:09:38;;;;;;;10.43;2.35;;;;;;;;;;5009170;28;20034;-59
2022/09/17 00:12:04;;;;;;;9.70;2.65;;;;;;;;;;5011246;28;20044;-57
2022/09/17 00:14:29;;;;;;;9.40;2.75;;;;;;;;;;5008895;28;20408;-59
2022/09/17 00:16:54;;;;;;;12.13;2.80;;;;;;;;;;5014750;28;20878;-60
2022/09/17 00:19:22;;;;;;;8.05;2.55;;;;;;;;;;5011480;28;20073;-57
2022/09/17 00:21:48;;;;;;;13.38;2.78;;;;;;;;;;5008059;28;20104;-58
2022/09/17 00:24:15;;;;;;;11.45;2.70;;;;;;;;;;5011538;28;20100;-60
2022/09/17 00:26:41;;;;;;;16.63;3.20;;;;;;;;;;5017752;28;20490;-61
2022/09/17 00:29:06;;;;;;;14.95;3.28;;;;;;;;;;5011254;28;20034;-58
2022/09/17 00:31:33;;;;;;;12.20;3.17;;;;;;;;;;5008229;28;20073;-59
2022/09/17 00:33:59;;;;;;;12.80;3.20;;;;;;;;;;5009531;28;20694;-60
2022/09/17 00:36:25;;;;;;;11.85;3.38;;;;;;;;;;5008401;28;20030;-59
2022/09/17 00:38:54;;;;;;;14.02;3.50;;;;;;;;;;5017092;28;20065;-59
2022/09/17 00:41:21;;;;;;;11.73;2.95;;;;;;;;;;5011152;28;20113;-59
2022/09/17 00:43:50;;;;;;;13.43;3.53;;;;;;;;;;5009942;28;20467;-59
2022/09/17 00:46:40;;;;;;;19.25;3.70;;;;;;;;;;5018690;28;20047;-59
2022/09/17 00:49:11;;;;;;;16.05;3.40;;;;;;;;;;5012056;28;20080;-59
2022/09/17 00:51:43;;;;;;;15.98;3.42;;;;;;;;;;5004363;28;20029;-60
2022/09/17 00:54:10;;;;;;;13.63;3.00;;;;;;;;;;5014168;28;20087;-58
2022/09/17 00:56:38;;;;;;;13.27;3.13;;;;;;;;;;5009331;28;20394;-61
2022/09/17 00:59:05;;;;;;;17.75;3.53;;;;;;;;;;5012430;28;20037;-59
2022/09/17 01:01:31;;;;;;;14.60;3.17;;;;;;;;;;5009380;28;20380;-58
2022/09/17 01:03:57;;;;;;;14.45;3.60;;;;;;;;;;5010817;28;20030;-58
2022/09/17 01:07:06;;;;;;;13.10;3.25;;;;;;;;;;5010987;28;20036;-56
2022/09/17 01:09:52;;;;;;;9.90;3.20;;;;;;;;;;4983033;28;20100;-58
2022/09/17 01:12:23;;;;;;;12.45;2.80;;;;;;;;;;5018889;28;20033;-57
2022/09/17 01:15:07;;;;;;;13.75;3.20;;;;;;;;;;5006584;28;20048;-60
2022/09/17 01:17:43;;;;;;;10.20;3.00;;;;;;;;;;4991977;28;20066;-58
2022/09/17 01:20:37;;;;;;;15.73;3.38;;;;;;;;;;4990328;28;20050;-60
2022/09/17 01:23:15;;;;;;;9.63;2.65;;;;;;;;;;4990309;28;20459;-60
2022/09/17 01:26:12;;;;;;;16.20;3.53;;;;;;;;;;5000126;28;20041;-60
2022/09/17 01:28:37;;;;;;;14.70;3.17;;;;;;;;;;4997566;28;20046;-60
2022/09/17 01:31:37;;;;;;;8.05;3.08;;;;;;;;;;4995544;28;20034;-59
2022/09/17 01:34:30;;;;;;;8.38;2.72;;;;;;;;;;4986225;28;20030;-58
2022/09/17 01:37:04;;;;;;;10.95;2.97;;;;;;;;;;4981191;28;20092;-58
2022/09/17 01:39:45;;;;;;;13.88;3.50;;;;;;;;;;5008490;28;20459;-59
2022/09/17 01:42:24;;;;;;;15.63;3.10;;;;;;;;;;4991227;28;20023;-57
2022/09/17 01:45:08;;;;;;;13.07;3.25;;;;;;;;;;4991380;28;20034;-58
2022/09/17 01:47:37;;;;;;;9.00;3.15;;;;;;;;;;4992038;28;20031;-58
2022/09/17 01:50:08;;;;;;;13.40;2.80;;;;;;;;;;4997606;28;20038;-60
2022/09/17 01:52:36;;;;;;;19.95;3.22;;;;;;;;;;4991134;28;20420;-59
2022/09/17 01:55:10;;;;;;;17.08;3.10;;;;;;;;;;4987692;28;20440;-60
2022/09/17 01:57:42;;;;;;;15.68;2.72;;;;;;;;;;4985040;28;20420;-61
2022/09/17 02:00:11;;;;;;;8.63;2.47;;;;;;;;;;4993355;28;20082;-59
2022/09/17 02:02:40;;;;;;;12.38;2.90;;;;;;;;;;4993620;28;20101;-59
2022/09/17 02:05:10;;;;;;;16.13;3.30;;;;;;;;;;5006904;28;20036;-58
2022/09/17 02:07:44;;;;;;;16.25;3.00;;;;;;;;;;4999988;28;20076;-61
2022/09/17 02:10:25;;;;;;;19.83;3.17;;;;;;;;;;5001909;28;20049;-58
2022/09/17 02:13:01;;;;;;;18.10;3.22;;;;;;;;;;4993207;28;20073;-60
2022/09/17 02:15:41;;;;;;;15.60;3.50;;;;;;;;;;5005020;28;20034;-59
2022/09/17 02:18:11;;;;;;;13.52;2.50;;;;;;;;;;5011326;28;20053;-59
2022/09/17 02:20:47;;;;;;;12.60;2.92;;;;;;;;;;5033992;28;20092;-59
2022/09/17 02:23:28;;;;;;;14.93;2.78;;;;;;;;;;5046297;28;20532;-59
2022/09/17 02:26:02;;;;;;;10.93;2.63;;;;;;;;;;5019201;28;20030;-59
2022/09/17 02:28:50;;;;;;;15.45;3.38;;;;;;;;;;5031294;28;20470;-58
2022/09/17 02:31:15;;;;;;;16.02;2.60;;;;;;;;;;5032194;28;20025;-58
2022/09/17 02:33:46;;;;;;;15.65;2.75;;;;;;;;;;5032409;28;20037;-59
2022/09/17 02:36:12;;;;;;;13.25;2.45;;;;;;;;;;5044069;28;20021;-59
2022/09/17 02:38:41;;;;;;;21.27;2.80;;;;;;;;;;5041779;28;20041;-59
2022/09/17 02:41:34;;;;;;;21.50;2.85;;;;;;;;;;5039050;28;20485;-59
2022/09/17 02:44:20;;;;;;;13.65;3.00;;;;;;;;;;5032227;28;20047;-59
2022/09/17 02:47:06;;;;;;;15.57;2.75;;;;;;;;;;5020390;28;20029;-59
2022/09/17 02:50:10;;;;;;;8.93;2.00;;;;;;;;;;5036120;28;20032;-59
2022/09/17 02:53:01;;;;;;;11.75;2.40;;;;;;;;;;5043449;28;20033;-59
2022/09/17 02:55:36;;;;;;;15.07;2.53;;;;;;;;;;5028050;28;20041;-59
2022/09/17 02:58:11;;;;;;;11.85;2.40;;;;;;;;;;5031583;28;20038;-59
2022/09/17 03:00:37;;;;;;;15.00;2.85;;;;;;;;;;5030252;28;20134;-59
2022/09/17 03:03:21;;;;;;;12.77;2.30;;;;;;;;;;5031354;28;20073;-59
2022/09/17 03:05:48;;;;;;;14.90;2.75;;;;;;;;;;5032810;28;20049;-59
2022/09/17 03:08:17;;;;;;;13.93;2.08;;;;;;;;;;5031296;28;20075;-59
2022/09/17 03:10:43;;;;;;;12.68;2.40;;;;;;;;;;5042817;28;20133;-59
2022/09/17 03:13:09;;;;;;;10.07;2.00;;;;;;;;;;5013650;28;20036;-59
2022/09/17 03:15:34;;;;;;;11.60;2.38;;;;;;;;;;5032452;28;20041;-58
2022/09/17 03:17:59;;;;;;;11.90;2.33;;;;;;;;;;5035965;28;20049;-58
2022/09/17 03:20:25;;;;;;;12.27;2.38;;;;;;;;;;5052998;28;20568;-59
2022/09/17 03:22:51;;;;;;;17.45;2.63;;;;;;;;;;5041429;28;20386;-59
2022/09/17 03:25:16;;;;;;;14.80;2.63;;;;;;;;;;5032250;28;20029;-59
2022/09/17 03:27:41;;;;;;;8.50;2.17;;;;;;;;;;5029206;28;20107;-60
2022/09/17 03:30:07;;;;;;;16.27;2.75;;;;;;;;;;5031240;28;20029;-59
2022/09/17 03:32:33;;;;;;;11.13;2.30;;;;;;;;;;5031648;28;20036;-59
2022/09/17 03:34:58;;;;;;;12.65;1.92;;;;;;;;;;5030375;28;20110;-59
2022/09/17 03:37:23;;;;;;;10.95;1.85;;;;;;;;;;5032408;28;20400;-59
2022/09/17 03:39:49;;;;;;;14.75;2.13;;;;;;;;;;5036973;28;20029;-60
2022/09/17 03:42:14;;;;;;;12.98;2.35;;;;;;;;;;5046813;28;20033;-60
2022/09/17 03:44:40;;;;;;;10.77;2.20;;;;;;;;;;5030433;28;20052;-61
2022/09/17 03:47:05;;;;;;;11.95;2.13;;;;;;;;;;5040339;28;20031;-59
2022/09/17 03:49:30;;;;;;;15.57;2.42;;;;;;;;;;5028087;28;20383;-59
2022/09/17 03:51:56;;;;;;;15.32;2.47;;;;;;;;;;5036135;28;20083;-60
2022/09/17 03:54:22;;;;;;;12.00;2.35;;;;;;;;;;5031797;28;20050;-59
2022/09/17 03:56:47;;;;;;;15.20;2.10;;;;;;;;;;5038521;28;20033;-60
2022/09/17 03:59:13;;;;;;;9.98;1.90;;;;;;;;;;5034594;28;20025;-60
2022/09/17 04:01:38;;;;;;;10.70;2.22;;;;;;;;;;5036036;28;20087;-60
2022/09/17 04:04:04;;;;;;;10.55;2.83;;;;;;;;;;5031707;28;20078;-60
2022/09/17 04:06:29;;;;;;;9.75;2.05;;;;;;;;;;5036185;28;20045;-59
2022/09/17 04:08:55;;;;;;;15.30;2.25;;;;;;;;;;5029903;28;20124;-60
2022/09/17 04:11:21;;;;;;;14.90;2.20;;;;;;;;;;5052234;28;20096;-60
2022/09/17 04:13:47;;;;;;;16.25;2.33;;;;;;;;;;5043407;28;20042;-60
2022/09/17 04:16:12;;;;;;;11.48;2.20;;;;;;;;;;5030658;28;20029;-59
2022/09/17 04:18:38;;;;;;;11.50;1.88;;;;;;;;;;5031984;28;20045;-59
2022/09/17 04:21:04;;;;;;;14.02;2.28;;;;;;;;;;5030336;28;20156;-62
2022/09/17 04:23:29;;;;;;;10.43;2.00;;;;;;;;;;5048463;28;20123;-62
2022/09/17 04:25:54;;;;;;;12.73;2.00;;;;;;;;;;5049013;28;20497;-61
2022/09/17 04:28:20;;;;;;;15.13;2.80;;;;;;;;;;5020531;28;20159;-61
2022/09/17 04:30:47;;;;;;;13.45;2.22;;;;;;;;;;5028722;28;20033;-61
2022/09/17 04:33:13;;;;;;;9.95;2.10;;;;;;;;;;5030425;28;20040;-61
2022/09/17 04:35:38;;;;;;;13.10;1.77;;;;;;;;;;5034209;28;20394;-62
2022/09/17 04:38:04;;;;;;;8.48;1.52;;;;;;;;;;5030093;28;20079;-61
2022/09/17 04:40:29;;;;;;;14.43;2.30;;;;;;;;;;5038985;28;20052;-61
2022/09/17 04:42:58;;;;;;;8.57;2.00;;;;;;;;;;5030763;28;20037;-61
2022/09/17 04:45:24;;;;;;;10.27;1.75;;;;;;;;;;5045276;28;20029;-59
2022/09/17 04:47:50;;;;;;;9.45;1.67;;;;;;;;;;5031229;28;20389;-60
2022/09/17 04:50:18;;;;;;;9.43;1.77;;;;;;;;;;5046960;28;20028;-60
2022/09/17 04:52:44;;;;;;;7.93;1.60;;;;;;;;;;5050908;28;20033;-58
2022/09/17 04:55:11;;;;;;;13.00;2.00;;;;;;;;;;5048245;28;20103;-58
2022/09/17 04:57:36;;;;;;;10.10;1.80;;;;;;;;;;5047981;28;20036;-59
2022/09/17 05:00:05;;;;;;;8.60;1.77;;;;;;;;;;5050953;28;20089;-57
2022/09/17 05:02:31;;;;;;;9.07;1.55;;;;;;;;;;5049174;28;20063;-58
2022/09/17 05:04:56;;;;;;;13.80;1.95;;;;;;;;;;5049734;28;20064;-58
2022/09/17 05:07:22;;;;;;;9.77;2.15;;;;;;;;;;5049752;28;20453;-57
2022/09/17 05:09:47;;;;;;;10.90;1.90;;;;;;;;;;5046646;28;20039;-57
2022/09/17 05:12:12;;;;;;;13.10;1.83;;;;;;;;;;5036167;28;20079;-56
2022/09/17 05:14:38;;;;;;;7.47;1.35;;;;;;;;;;5049607;28;20044;-62
2022/09/17 05:17:03;;;;;;;8.57;1.73;;;;;;;;;;5046988;28;20017;-58
2022/09/17 05:19:29;;;;;;;8.23;1.90;;;;;;;;;;5051212;28;20428;-59
2022/09/17 05:21:55;;;;;;;9.23;1.70;;;;;;;;;;5047663;28;20432;-58
2022/09/17 05:24:20;;;;;;;10.32;1.70;;;;;;;;;;5050910;28;20048;-57
2022/09/17 05:26:45;;;;;;;8.88;1.52;;;;;;;;;;5048140;28;20029;-58
2022/09/17 05:29:11;;;;;;;8.98;1.50;;;;;;;;;;5030808;28;20041;-57
2022/09/17 05:31:36;;;;;;;8.23;1.67;;;;;;;;;;5024764;28;20111;-61
2022/09/17 05:34:02;;;;;;;10.82;1.55;;;;;;;;;;5054762;28;20044;-61
2022/09/17 05:36:27;;;;;;;5.78;1.75;;;;;;;;;;5051215;28;20120;-60
2022/09/17 05:38:53;;;;;;;5.93;1.85;;;;;;;;;;5054530;28;20115;-61
2022/09/17 05:41:18;;;;;;;6.03;1.30;;;;;;;;;;5036647;28;20025;-61
2022/09/17 05:43:44;;;;;;;8.32;1.50;;;;;;;;;;5034302;28;20116;-61
2022/09/17 05:46:09;;;;;;;5.85;1.55;;;;;;;;;;5016192;28;20029;-60
2022/09/17 05:48:35;;;;;;;8.38;1.65;;;;;;;;;;5032583;28;20059;-60
2022/09/17 05:51:00;;;;;;;9.00;1.58;;;;;;;;;;5033416;28;20037;-60
2022/09/17 05:53:26;;;;;;;6.57;1.40;;;;;;;;;;5044694;28;20045;-60
2022/09/17 05:55:58;;;;;;;5.50;1.67;;;;;;;;;;5042959;28;20398;-60
2022/09/17 05:58:24;;;;;;;7.22;1.33;;;;;;;;;;5043142;28;20475;-61
2022/09/17 06:00:50;;;;;;;6.50;1.40;;;;;;;;;;5039084;28;20029;-61
2022/09/17 06:03:17;;;;;;;6.35;1.48;;;;;;;;;;5037785;28;20112;-61
2022/09/17 06:05:51;;;;;;;6.78;1.80;;;;;;;;;;5052041;28;20044;-61
2022/09/17 06:08:16;;;;;;;7.68;1.60;;;;;;;;;;5052711;28;20033;-61
2022/09/17 06:10:42;;;;;;;7.40;1.63;;;;;;;;;;5040926;28;20363;-61
2022/09/17 06:13:07;;;;;;;6.10;1.50;;;;;;;;;;5036571;28;20080;-60
2022/09/17 06:15:32;;;;;;;7.80;1.67;;;;;;;;;;5042271;28;20035;-61
2022/09/17 06:17:58;;;;;;;7.50;1.67;;;;;;;;;;5045515;28;20049;-61
2022/09/17 06:20:23;;;;;;;7.72;1.30;;;;;;;;;;5045405;28;20490;-61
2022/09/17 06:22:57;;;;;;;6.03;1.70;;;;;;;;;;5053450;28;20032;-61
2022/09/17 06:25:23;;;;;;;10.35;1.48;;;;;;;;;;5048122;28;20035;-61
2022/09/17 06:27:48;;;;;;;9.43;1.40;;;;;;;;;;5051525;28;20120;-61
2022/09/17 06:30:14;;;;;;;8.18;1.60;;;;;;;;;;5051589;28;20037;-60
2022/09/17 06:32:39;;;;;;;9.25;1.60;;;;;;;;;;5031165;28;20045;-61
2022/09/17 06:35:05;;;;;;;7.22;1.30;;;;;;;;;;5029070;28;20044;-61
2022/09/17 06:37:32;;;;;;;6.90;1.50;;;;;;;;;;5033930;28;20496;-61
2022/09/17 06:39:58;;;;;;;9.45;1.55;;;;;;;;;;5029332;28;20033;-61
2022/09/17 06:42:24;;;;;;;7.30;1.50;;;;;;;;;;5038483;28;20037;-62
2022/09/17 06:44:50;;;;;;;5.97;1.60;;;;;;;;;;5052957;28;20120;-63
2022/09/17 06:47:15;;;;;;;6.18;1.40;;;;;;;;;;5051325;28;20108;-60
2022/09/17 06:49:40;;;;;;;10.00;1.88;;;;;;;;;;5034667;28;20041;-62
2022/09/17 06:52:06;;;;;;;7.00;1.52;;;;;;;;;;5034603;28;20107;-62
2022/09/17 06:54:32;;;;;;;8.13;1.48;;;;;;;;;;5053642;28;20064;-62
2022/09/17 06:56:57;;;;;;;7.95;1.58;;;;;;;;;;5032579;28;20033;-62
2022/09/17 06:59:23;;;;;;;8.20;1.30;;;;;;;;;;5039584;28;20479;-62
2022/09/17 07:01:48;;;;;;;7.60;1.65;;;;;;;;;;5042811;28;20037;-63
2022/09/17 07:04:16;;;;;;;8.13;1.45;;;;;;;;;;5053592;28;20029;-62
2022/09/17 07:06:42;;;;;;;7.30;1.40;;;;;;;;;;5050957;28;20036;-61
2022/09/17 07:09:08;;;;;;;6.95;1.50;;;;;;;;;;5047252;28;20078;-61
2022/09/17 07:11:33;;;;;;;4.50;1.20;;;;;;;;;;5047663;28;20032;-61
2022/09/17 07:13:59;;;;;;;7.03;1.50;;;;;;;;;;5047232;28;20621;-61
2022/09/17 07:16:25;;;;;;;11.05;1.63;;;;;;;;;;5035346;28;20453;-60
2022/09/17 07:18:51;;;;;;;6.28;1.27;;;;;;;;;;5050873;28;20182;-60
2022/09/17 07:21:17;;;;;;;8.73;1.30;;;;;;;;;;5053477;28;20033;-61
2022/09/17 07:23:43;;;;;;;7.72;1.40;;;;;;;;;;5041707;28;20036;-61
2022/09/17 07:26:13;;;;;;;6.10;1.30;;;;;;;;;;5049247;28;20059;-62
2022/09/17 07:28:40;;;;;;;5.33;1.40;;;;;;;;;;5048547;28;20116;-62
2022/09/17 07:31:06;;;;;;;6.32;1.30;;;;;;;;;;5035519;28;20513;-62
2022/09/17 07:33:34;;;;;;;9.68;1.42;;;;;;;;;;5048714;28;20025;-61
2022/09/17 07:36:05;;;;;;;5.85;1.25;;;;;;;;;;5052309;28;20343;-61
2022/09/17 07:38:30;;;;;;;;;;;;;;;;;;5050596;28;20036;-60
2022/09/17 07:40:58;;;;;;;6.22;1.38;;;;;;;;;;5050058;28;19913;-61
2022/09/17 07:43:25;;;;;;;8.40;1.40;;;;;;;;;;5050888;28;20510;-61
2022/09/17 07:45:51;;;;;;;7.63;1.55;;;;;;;;;;5040579;28;20028;-62
2022/09/17 07:48:17;;;;;;;6.55;1.38;;;;;;;;;;5046892;28;20034;-61
2022/09/17 07:50:42;;;;;;;7.43;1.55;;;;;;;;;;5040200;28;20095;-61
2022/09/17 07:53:07;;;;;;;6.78;1.48;;;;;;;;;;5050844;28;20126;-61
2022/09/17 07:55:33;;;;;;;5.75;1.42;;;;;;;;;;5050556;28;20075;-61
2022/09/17 07:57:58;;;;;;;7.15;1.65;;;;;;;;;;5050635;28;20111;-62
2022/09/17 08:00:24;;;;;;;9.60;1.85;;;;;;;;;;5046056;28;20028;-62
2022/09/17 08:02:54;;;;;;;6.43;1.70;;;;;;;;;;5035267;28;20029;-61
2022/09/17 08:05:19;;;;;;;6.05;1.13;;;;;;;;;;5036528;28;20037;-61
2022/09/17 08:07:49;;;;;;;6.18;1.40;;;;;;;;;;5018055;28;20033;-61
2022/09/17 08:10:14;;;;;;;10.07;1.60;;;;;;;;;;5027528;28;20029;-60
2022/09/17 08:12:39;;;;;;;9.90;1.38;;;;;;;;;;5042651;28;20043;-61
2022/09/17 08:15:05;;;;;;;6.63;1.30;;;;;;;;;;5049861;28;20039;-60
2022/09/17 08:17:31;;;;;;;4.25;1.23;;;;;;;;;;5024025;28;20037;-60
2022/09/17 08:19:56;;;;;;;9.23;1.98;;;;;;;;;;5031932;28;20049;-61
2022/09/17 08:22:21;;;;;;;5.55;1.08;;;;;;;;;;5045338;28;20123;-61
2022/09/17 08:24:47;;;;;;;5.53;1.38;;;;;;;;;;5043290;28;20037;-61
2022/09/17 08:27:12;;;;;;;5.90;1.40;;;;;;;;;;5045885;28;20052;-62
2022/09/17 08:29:37;;;;;;;9.95;1.40;;;;;;;;;;5037972;28;20029;-62
2022/09/17 08:32:03;;;;;;;8.48;1.40;;;;;;;;;;5043996;28;20477;-63
2022/09/17 08:34:28;;;;;;;7.40;1.30;;;;;;;;;;5049333;28;20033;-62
2022/09/17 08:36:54;;;;;;;4.00;1.10;;;;;;;;;;5029241;28;20039;-62
2022/09/17 08:39:19;;;;;;;5.22;1.30;;;;;;;;;;5017725;28;20485;-61
2022/09/17 08:41:51;;;;;;;5.93;1.40;;;;;;;;;;5037968;28;20037;-62
2022/09/17 08:44:41;;;;;;;3.80;1.05;;;;;;;;;;5040604;28;20029;-60
2022/09/17 08:47:20;;;;;;;8.70;1.30;;;;;;;;;;5031192;28;20059;-61
2022/09/17 08:49:53;;;;;;;6.45;1.60;;;;;;;;;;5015966;28;20028;-61
2022/09/17 08:52:57;;;;;;;6.63;1.17;;;;;;;;;;5031493;28;20037;-60
2022/09/17 08:56:16;;;;;;;5.30;1.00;;;;;;;;;;5031858;28;20060;-59
2022/09/17 08:59:21;;;;;;;4.72;1.10;;;;;;;;;;4950543;29;20039;-60
2022/09/17 09:02:14;;;;;;;4.05;1.10;;;;;;;;;;5021631;28;20389;-61
2022/09/17 09:04:57;;;;;;;4.18;1.10;;;;;;;;;;5030992;28;20075;-62
2022/09/17 09:07:26;;;;;;;3.47;1.33;;;;;;;;;;5031947;28;20403;-61
2022/09/17 09:10:03;;;;;;;4.00;1.23;;;;;;;;;;5029050;28;20033;-60
2022/09/17 09:12:32;;;;;;;5.10;1.10;;;;;;;;;;5031509;28;20519;-61
2022/09/17 09:15:06;;;;;;;8.77;1.30;;;;;;;;;;5030714;28;20052;-61
2022/09/17 09:17:40;;;;;;;6.40;1.40;;;;;;;;;;5031411;28;20038;-60
2022/09/17 09:20:16;;;;;;;4.80;1.10;;;;;;;;;;5050085;28;20053;-60
2022/09/17 09:22:50;;;;;;;3.75;1.08;;;;;;;;;;5049003;28;20036;-60
2022/09/17 09:25:25;;;;;;;5.78;1.05;;;;;;;;;;5048485;28;20021;-60
2022/09/17 09:28:25;;;;;;;2.88;1.08;;;;;;;;;;5036213;28;20033;-60
2022/09/17 09:30:57;;;;;;;3.97;0.95;;;;;;;;;;5039564;28;20094;-60
2022/09/17 09:33:29;;;;;;;4.13;1.10;;;;;;;;;;5047749;28;20082;-60
2022/09/17 09:35:55;;;;;;;5.70;1.02;;;;;;;;;;5040386;28;20040;-59
2022/09/17 09:38:41;;;;;;;2.60;0.80;;;;;;;;;;5035357;28;20033;-60
2022/09/17 09:41:18;;;;;;;5.55;1.30;;;;;;;;;;5027423;28;20037;-59
2022/09/17 09:44:00;;;;;;;7.35;1.20;;;;;;;;;;5048153;28;20033;-60
2022/09/17 09:46:56;;;;;;;3.17;1.02;;;;;;;;;;5050438;28;20120;-60
2022/09/17 09:49:33;;;;;;;3.80;0.90;;;;;;;;;;5038350;28;20026;-59
2022/09/17 09:52:16;;;;;;;3.90;0.90;;;;;;;;;;5020196;28;20048;-60
2022/09/17 09:55:10;;;;;;;2.35;1.00;;;;;;;;;;5022022;28;20064;-60
2022/09/17 09:58:08;;;;;;;1.85;0.75;;;;;;;;;;5043122;28;20037;-60
2022/09/17 10:00:42;;;;;;;2.90;0.93;;;;;;;;;;5011456;28;20072;-59
2022/09/17 10:03:32;;;;;;;4.35;1.02;;;;;;;;;;5029913;28;20308;-60
2022/09/17 10:06:06;;;;;;;2.20;0.95;;;;;;;;;;5011692;28;20664;-60
2022/09/17 10:08:37;;;;;;;5.05;0.80;;;;;;;;;;5030533;28;20029;-60
2022/09/17 10:11:10;;;;;;;3.00;0.98;;;;;;;;;;5049706;28;20078;-61
2022/09/17 10:13:36;;;;;;;12.98;1.30;;;;;;;;;;5050133;28;20087;-59
2022/09/17 10:16:26;;;;;;;5.07;1.00;;;;;;;;;;5048270;28;20108;-61
2022/09/17 10:19:04;;;;;;;4.45;0.80;;;;;;;;;;5038712;28;20244;-61
2022/09/17 10:21:32;;;;;;;4.68;0.80;;;;;;;;;;5030037;28;20037;-59
2022/09/17 10:24:00;;;;;;;1.98;0.57;;;;;;;;;;5041390;28;20090;-60
2022/09/17 10:26:29;;;;;;;6.78;1.00;;;;;;;;;;5039407;28;20032;-60
2022/09/17 10:28:57;;;;;;;2.95;0.73;;;;;;;;;;5031895;28;20033;-60
2022/09/17 10:31:22;;;;;;;2.70;0.98;;;;;;;;;;5034228;28;20478;-60
2022/09/17 10:33:57;;;;;;;5.40;0.82;;;;;;;;;;5033528;28;20112;-60
2022/09/17 10:36:45;;;;;;;6.45;1.35;;;;;;;;;;5036284;28;20120;-60
2022/09/17 10:39:24;;;;;;;3.65;1.23;;;;;;;;;;5017280;28;20064;-60
2022/09/17 10:42:14;;;;;;;3.38;0.98;;;;;;;;;;5040987;28;20105;-60
2022/09/17 10:44:56;;;;;;;6.70;0.93;;;;;;;;;;5025735;28;20406;-60
2022/09/17 10:47:23;;;;;;;3.33;0.80;;;;;;;;;;5050702;28;20025;-60
2022/09/17 10:49:55;;;;;;;2.63;0.80;;;;;;;;;;5052253;28;20047;-59
2022/09/17 10:52:29;;;;;;;4.50;0.75;;;;;;;;;;5035749;28;20045;-60
2022/09/17 10:55:15;;;;;;;3.88;0.88;;;;;;;;;;5031277;28;20067;-61
2022/09/17 10:58:08;;;;;;;3.35;0.77;;;;;;;;;;5042241;28;20033;-61
2022/09/17 11:00:49;;;;;;;3.10;0.50;;;;;;;;;;5038753;28;20485;-60
2022/09/17 11:03:44;;;;;;;4.38;0.80;;;;;;;;;;5034743;28;20033;-61
2022/09/17 11:06:37;;;;;;;2.72;0.90;;;;;;;;;;5050509;28;20389;-61
2022/09/17 11:09:02;;;;;;;2.88;0.73;;;;;;;;;;5029052;28;20037;-59
2022/09/17 11:11:52;;;;;;;2.45;0.65;;;;;;;;;;5042404;28;20140;-60
2022/09/17 11:14:23;;;;;;;2.28;0.70;;;;;;;;;;5051086;28;20082;-60
2022/09/17 11:17:11;;;;;;;;;;;;;;;;;;5033136;28;20033;-58
2022/09/17 11:19:44;;;;;;;2.28;0.80;;;;;;;;;;5046375;28;19944;-60
2022/09/17 11:22:28;;;;;;;2.97;0.90;;;;;;;;;;5049955;28;20060;-60
2022/09/17 11:25:15;;;;;;;2.83;0.77;;;;;;;;;;5036775;28;20132;-60
2022/09/17 11:28:22;;;;;;;0.95;0.80;;;;;;;;;;5047834;28;20041;-60
2022/09/17 11:31:01;;;;;;;2.40;0.95;;;;;;;;;;4947595;29;20035;-60
2022/09/17 11:33:36;;;;;;;1.90;0.90;;;;;;;;;;4933335;29;20032;-60
2022/09/17 11:36:10;;;;;;;2.08;0.73;;;;;;;;;;4982368;28;20046;-60
2022/09/17 11:38:36;;;;;;;1.67;0.77;;;;;;;;;;5049904;28;20032;-60
2022/09/17 11:41:24;;;;;;;3.58;0.88;;;;;;;;;;5046057;28;20456;-59
2022/09/17 11:44:07;;;;;;;3.25;0.93;;;;;;;;;;5033041;28;20029;-60
2022/09/17 11:47:14;;;;;;;3.65;0.60;;;;;;;;;;5023001;28;20436;-60
2022/09/17 11:49:47;;;;;;;1.73;0.70;;;;;;;;;;5022934;28;20037;-60
2022/09/17 11:52:28;;;;;;;1.75;0.77;;;;;;;;;;5050883;28;20033;-60
2022/09/17 11:55:03;;;;;;;2.28;0.68;;;;;;;;;;5050246;28;20416;-61
2022/09/17 11:57:34;;;;;;;2.75;0.82;;;;;;;;;;5052566;28;20047;-60
2022/09/17 12:00:18;;;;;;;2.63;0.90;;;;;;;;;;5027463;28;20033;-61
2022/09/17 12:02:56;;;;;;;3.42;0.85;;;;;;;;;;5039911;28;20532;-59
2022/09/17 12:05:27;;;;;;;3.88;0.88;;;;;;;;;;5017943;28;20096;-60
2022/09/17 12:08:02;;;;;;;5.93;1.77;;;;;;;;;;5031685;28;20104;-59
2022/09/17 12:10:40;;;;;;;4.32;1.30;;;;;;;;;;5014934;28;20072;-60
2022/09/17 12:13:08;;;;;;;2.25;0.90;;;;;;;;;;5034515;28;20040;-61
2022/09/17 12:15:38;;;;;;;3.92;1.20;;;;;;;;;;5032028;28;20042;-60
2022/09/17 12:18:40;;;;;;;4.20;0.90;;;;;;;;;;5031882;28;20022;-61
2022/09/17 12:21:09;;;;;;;2.40;1.30;;;;;;;;;;5032356;28;20033;-59
2022/09/17 12:23:42;;;;;;;4.50;0.90;;;;;;;;;;5032087;28;20394;-59
2022/09/17 12:26:31;;;;;;;4.05;1.17;;;;;;;;;;5018809;28;20172;-60
2022/09/17 12:29:26;;;;;;;2.85;0.93;;;;;;;;;;5011672;28;20092;-60
2022/09/17 12:32:10;;;;;;;2.65;1.15;;;;;;;;;;5011593;28;20033;-60
2022/09/17 12:34:41;;;;;;;3.10;1.20;;;;;;;;;;5012328;28;20057;-60
2022/09/17 12:37:10;;;;;;;2.20;1.00;;;;;;;;;;5010854;28;20038;-59
2022/09/17 12:39:47;;;;;;;1.45;0.90;;;;;;;;;;5011750;28;20061;-60
2022/09/17 12:42:32;;;;;;;0.90;0.70;;;;;;;;;;5007955;28;20054;-60
2022/09/17 12:45:18;;;;;;;1.38;1.00;;;;;;;;;;5018031;28;20660;-62
2022/09/17 12:47:51;;;;;;;2.65;1.00;;;;;;;;;;5022297;28;20040;-61
2022/09/17 12:50:39;;;;;;;4.78;0.95;;;;;;;;;;5015517;28;20041;-61
2022/09/17 12:53:14;;;;;;;2.90;0.82;;;;;;;;;;4979181;28;20050;-60
2022/09/17 12:56:03;;;;;;;2.72;0.93;;;;;;;;;;5029671;28;20025;-60
2022/09/17 12:58:46;;;;;;;4.15;1.10;;;;;;;;;;5018769;28;20475;-61
2022/09/17 13:01:21;;;;;;;3.78;1.02;;;;;;;;;;4992722;28;20026;-61
2022/09/17 13:03:54;;;;;;;3.47;0.90;;;;;;;;;;5008402;28;20037;-60
2022/09/17 13:06:44;;;;;;;3.13;0.88;;;;;;;;;;5011782;28;20034;-60
2022/09/17 13:09:34;;;;;;;7.85;1.10;;;;;;;;;;5020226;28;20033;-59
2022/09/17 13:12:06;;;;;;;3.10;0.80;;;;;;;;;;5019301;28;20052;-61
2022/09/17 13:14:59;;;;;;;6.07;1.13;;;;;;;;;;5012941;28;20041;-61
2022/09/17 13:18:03;;;;;;;2.92;1.20;;;;;;;;;;5023882;28;20048;-60
2022/09/17 13:20:44;;;;;;;2.90;1.15;;;;;;;;;;5013664;28;20053;-61
2022/09/17 13:23:11;;;;;;;3.30;1.15;;;;;;;;;;5011514;28;20042;-60
2022/09/17 13:25:50;;;;;;;2.55;0.85;;;;;;;;;;5022454;28;20037;-61
2022/09/17 13:28:16;;;;;;;2.42;0.90;;;;;;;;;;5022381;28;20562;-61
2022/09/17 13:30:56;;;;;;;2.17;1.00;;;;;;;;;;5015762;28;20089;-61
2022/09/17 13:33:52;;;;;;;7.43;2.80;;;;;;;;;;5021728;28;20112;-61
2022/09/17 13:36:42;;;;;;;5.93;2.03;;;;;;;;;;5017549;28;20119;-62
2022/09/17 13:39:28;;;;;;;7.47;2.37;;;;;;;;;;5012489;28;20033;-61
2022/09/17 13:42:04;;;;;;;3.45;1.13;;;;;;;;;;5019518;28;20083;-62
2022/09/17 13:44:33;;;;;;;4.78;1.15;;;;;;;;;;5012136;28;20037;-62
2022/09/17 13:47:11;;;;;;;3.35;0.90;;;;;;;;;;5020265;28;20033;-62
2022/09/17 13:49:44;;;;;;;6.38;1.30;;;;;;;;;;5028839;28;20033;-63
2022/09/17 13:52:10;;;;;;;5.47;1.30;;;;;;;;;;5027359;28;20074;-63
2022/09/17 13:54:37;;;;;;;7.80;1.80;;;;;;;;;;5017503;28;20039;-59
2022/09/17 13:57:12;;;;;;;6.55;1.70;;;;;;;;;;5015520;28;20021;-59
2022/09/17 13:59:50;;;;;;;6.18;1.40;;;;;;;;;;5017299;28;20034;-64
2022/09/17 14:02:15;;;;;;;4.78;1.30;;;;;;;;;;5015616;28;20036;-62
2022/09/17 14:04:41;;;;;;;3.72;0.90;;;;;;;;;;5025083;28;20034;-63
2022/09/17 14:07:27;;;;;;;4.07;0.90;;;;;;;;;;5013489;28;20044;-60
2022/09/17 14:09:58;;;;;;;3.78;1.05;;;;;;;;;;5012205;28;20026;-61
2022/09/17 14:12:57;;;;;;;;;;;;;;;;;;5022197;28;20041;-61
2022/09/17 14:15:40;;;;;;;3.17;1.30;;;;;;;;;;5014155;28;19917;-61
2022/09/17 14:18:27;;;;;;;3.60;0.98;;;;;;;;;;5014481;28;20529;-60
2022/09/17 14:21:08;;;;;;;4.40;1.13;;;;;;;;;;5011129;28;20030;-61
2022/09/17 14:23:42;;;;;;;4.10;1.15;;;;;;;;;;5012215;28;20040;-61
2022/09/17 14:26:17;;;;;;;1.73;0.95;;;;;;;;;;5023736;28;20038;-60
2022/09/17 14:28:59;;;;;;;3.33;1.10;;;;;;;;;;5023283;28;20044;-60
2022/09/17 14:31:32;;;;;;;2.92;1.20;;;;;;;;;;5014168;28;20034;-61
2022/09/17 14:34:05;;;;;;;3.47;1.42;;;;;;;;;;5013913;28;20029;-61
2022/09/17 14:36:36;;;;;;;6.22;2.17;;;;;;;;;;5014887;28;20041;-62
2022/09/17 14:39:08;;;;;;;4.30;1.58;;;;;;;;;;5013533;28;20029;-61
2022/09/17 14:41:39;;;;;;;2.42;1.40;;;;;;;;;;5030022;28;20056;-62
2022/09/17 14:44:13;;;;;;;3.85;1.90;;;;;;;;;;5034325;28;20108;-60
2022/09/17 14:46:54;;;;;;;4.85;1.60;;;;;;;;;;5029584;28;20113;-62
2022/09/17 14:49:19;;;;;;;4.47;1.25;;;;;;;;;;5010185;28;20033;-61
2022/09/17 14:51:45;;;;;;;4.25;1.50;;;;;;;;;;5013574;28;20368;-61
2022/09/17 14:54:24;;;;;;;5.93;1.50;;;;;;;;;;5020524;28;20116;-61
2022/09/17 14:56:53;;;;;;;3.97;1.50;;;;;;;;;;5032947;28;20466;-61
2022/09/17 14:59:24;;;;;;;5.78;1.40;;;;;;;;;;5033854;28;20386;-60
2022/09/17 15:01:50;;;;;;;5.10;1.30;;;;;;;;;;5017644;28;20097;-60
2022/09/17 15:04:34;;;;;;;5.57;2.22;;;;;;;;;;4995686;28;20030;-59
2022/09/17 15:07:11;;;;;;;6.70;1.27;;;;;;;;;;5011094;28;20025;-61
2022/09/17 15:09:37;;;;;;;2.00;1.00;;;;;;;;;;4996230;28;20042;-60
2022/09/17 15:12:04;;;;;;;3.42;1.00;;;;;;;;;;5013812;28;20026;-60
2022/09/17 15:14:33;;;;;;;4.88;1.38;;;;;;;;;;4996116;28;20034;-60
2022/09/17 15:17:01;;;;;;;4.65;1.15;;;;;;;;;;5012110;28;20030;-63